< < Back
Terminal Aerodrome Forecast


Current Version              Previous Versions:   1  2  3  4  5  6  7  8  9  

Terminal Aerodrome Forecast

143
FTUS42 KMLB 200900 AAA
TAFMCO
TAF AMD
KMCO 200930Z 2010/2106 00000KT P6SM FEW035 SCT150 BKN250
     FM201500 19005KT P6SM SCT100 BKN250
     FM202300 10004KT P6SM BKN100 OVC250=



Latest METAR

221
SAUS70 KWBC 200900
MTRMCO
METAR KMCO 200853Z 00000KT 10SM FEW033 FEW150 BKN250 13/12 A3006 RMK AO2
SLP177 T01330117 56008


USA.gov is the U.S. government's official web portal to all federal, state and local government web resources and services.